Time;durP1;ratioP1;P1;durP2;ratioP2;P2;SDS_P1;SDS_P2;PMS_P1;PMS_P2;Temp;Humidity;BMP_temperature;BMP_pressure;BME280_temperature;BME280_humidity;BME280_pressure;Samples;Min_cycle;Max_cycle;Signal;HPM_P1;HPM_P2
2023/03/10 00:00:07;;;;;;;;;;;;;;;21.79;29.39;96967.84;4918296;29;1031;-75
2023/03/10 00:02:33;;;;;;;;;;;;;;;21.72;29.19;96968.19;4871053;29;1341;-75
2023/03/10 00:04:59;;;;;;;;;;;;;;;22.01;29.17;96972.56;4902650;29;1044;-75
2023/03/10 00:07:25;;;;;;;;;;;;;;;22.08;29.04;96980.78;4917976;29;1217;-74
2023/03/10 00:09:50;;;;;;;;;;;;;;;22.07;28.68;96970.69;4902060;29;905;-74
2023/03/10 00:12:16;;;;;;;;;;;;;;;21.98;28.56;96984.88;4907595;29;1911;-75
2023/03/10 00:14:42;;;;;;;;;;;;;;;21.77;28.61;96986.59;4956139;29;944;-75
2023/03/10 00:17:07;;;;;;;;;;;;;;;21.64;28.65;96995.22;4940033;29;1009;-75
2023/03/10 00:19:33;;;;;;;;;;;;;;;21.61;28.73;96990.50;4969252;28;1456;-74
2023/03/10 00:21:58;;;;;;;;;;;;;;;21.92;28.62;96992.44;4975107;28;1146;-74
2023/03/10 00:24:24;;;;;;;;;;;;;;;22.08;27.97;96980.78;4959409;28;965;-74
2023/03/10 00:26:49;;;;;;;;;;;;;;;22.30;27.55;96989.13;4927232;28;1619;-74
2023/03/10 00:29:15;;;;;;;;;;;;;;;21.74;28.13;96993.97;4975353;28;1103;-75
2023/03/10 00:31:41;;;;;;;;;;;;;;;21.75;28.25;96995.53;4943088;28;1926;-75
2023/03/10 00:34:06;;;;;;;;;;;;;;;21.51;28.41;96986.09;4958518;28;1064;-74
2023/03/10 00:36:32;;;;;;;;;;;;;;;21.71;28.12;96974.28;4942954;28;1227;-74
2023/03/10 00:38:59;;;;;;;;;;;;;;;22.05;27.60;96956.22;4927243;28;1411;-75
2023/03/10 00:41:26;;;;;;;;;;;;;;;22.26;27.10;96960.94;4943116;28;1133;-75
2023/03/10 00:43:52;;;;;;;;;;;;;;;21.97;27.38;96960.66;4943201;28;1185;-74
2023/03/10 00:46:17;;;;;;;;;;;;;;;21.89;27.72;96959.38;4958827;28;927;-75
2023/03/10 00:48:43;;;;;;;;;;;;;;;21.69;27.96;96954.97;4942804;28;982;-74
2023/03/10 00:51:09;;;;;;;;;;;;;;;21.74;27.98;96957.16;4927142;28;1907;-75
2023/03/10 00:53:35;;;;;;;;;;;;;;;22.02;27.69;96968.47;4970171;28;992;-75
2023/03/10 00:56:13;;;;;;;;;;;;;;;22.47;26.75;96961.22;4936345;29;1059;-74
2023/03/10 00:58:39;;;;;;;;;;;;;;;22.33;27.01;96968.34;4920518;29;981;-74
2023/03/10 01:01:09;;;;;;;;;;;;;;;22.02;27.33;96972.13;4920726;29;1161;-75
2023/03/10 01:03:35;;;;;;;;;;;;;;;22.08;27.39;96972.28;4920054;29;1220;-75
2023/03/10 01:06:00;;;;;;;;;;;;;;;21.81;27.63;96984.38;4936691;29;923;-75
2023/03/10 01:08:26;;;;;;;;;;;;;;;22.15;27.34;96993.84;4920593;29;1129;-74
2023/03/10 01:10:51;;;;;;;;;;;;;;;22.14;27.31;96987.41;4905027;29;1899;-74
2023/03/10 01:13:17;;;;;;;;;;;;;;;21.99;27.43;96986.44;4882636;29;1142;-75
2023/03/10 01:15:49;;;;;;;;;;;;;;;21.80;27.76;96986.41;4867276;29;970;-74
2023/03/10 01:18:15;;;;;;;;;;;;;;;21.82;27.34;96988.81;4883662;29;1000;-74
2023/03/10 01:20:41;;;;;;;;;;;;;;;21.61;27.35;96984.06;4867645;29;1032;-74
2023/03/10 01:23:17;;;;;;;;;;;;;;;22.05;27.10;96971.16;4898600;29;1042;-74
2023/03/10 01:25:42;;;;;;;;;;;;;;;22.27;26.67;96968.19;4885360;29;940;-74
2023/03/10 01:28:08;;;;;;;;;;;;;;;22.03;26.75;96970.84;4954311;28;1434;-75
2023/03/10 01:30:35;;;;;;;;;;;;;;;21.90;27.28;96960.94;4923772;29;2020;-74
2023/03/10 01:33:01;;;;;;;;;;;;;;;21.73;27.07;96966.91;4955405;28;1047;-74
2023/03/10 01:35:28;;;;;;;;;;;;;;;21.71;27.47;96958.13;4939372;29;1125;-74
2023/03/10 01:37:53;;;;;;;;;;;;;;;21.93;27.21;96969.28;4939610;29;937;-74
2023/03/10 01:40:19;;;;;;;;;;;;;;;22.15;26.95;96980.47;4936050;29;1110;-75
2023/03/10 01:42:45;;;;;;;;;;;;;;;21.87;26.83;96976.84;4936228;29;1634;-75
2023/03/10 01:45:13;;;;;;;;;;;;;;;21.69;27.25;96988.94;4937557;28;1231;-74
2023/03/10 01:47:40;;;;;;;;;;;;;;;21.72;27.12;96985.16;4961271;28;1372;-74
2023/03/10 01:50:06;;;;;;;;;;;;;;;21.67;27.08;96993.50;4945758;28;1117;-75
2023/03/10 01:52:31;;;;;;;;;;;;;;;22.11;26.77;96982.69;4961664;28;1915;-74
2023/03/10 01:55:01;;;;;;;;;;;;;;;22.34;26.85;96982.03;4945869;28;1371;-75
2023/03/10 01:57:28;;;;;;;;;;;;;;;22.16;27.02;96992.59;4945793;28;1113;-74
2023/03/10 01:59:54;;;;;;;;;;;;;;;21.93;27.59;96994.78;4961498;28;952;-74
2023/03/10 02:02:20;;;;;;;;;;;;;;;21.71;28.00;96989.25;4945807;28;1334;-74
2023/03/10 02:04:47;;;;;;;;;;;;;;;21.83;27.82;96991.16;4945932;28;1242;-75
2023/03/10 02:07:13;;;;;;;;;;;;;;;22.27;27.43;96993.69;4961730;28;1009;-74
2023/03/10 02:09:41;;;;;;;;;;;;;;;22.34;27.37;96984.88;4961396;28;971;-75
2023/03/10 02:12:07;;;;;;;;;;;;;;;21.96;27.52;96993.81;4978361;28;1991;-74
2023/03/10 02:14:34;;;;;;;;;;;;;;;21.82;27.97;96989.59;4985322;28;1277;-74
2023/03/10 02:17:00;;;;;;;;;;;;;;;21.79;28.00;96996.19;4985407;28;1077;-74
2023/03/10 02:19:44;;;;;;;;;;;;;;;21.88;28.40;97000.28;4985292;28;1132;-74
2023/03/10 02:22:11;;;;;;;;;;;;;;;22.12;28.14;97006.91;5018504;28;1198;-74
2023/03/10 02:24:47;;;;;;;;;;;;;;;22.41;27.51;96999.97;4969582;28;1140;-74
2023/03/10 02:27:20;;;;;;;;;;;;;;;21.84;28.09;96998.38;5018934;28;889;-74
2023/03/10 02:29:47;;;;;;;;;;;;;;;21.95;28.00;97008.47;5001404;28;928;-74
2023/03/10 02:32:13;;;;;;;;;;;;;;;21.87;28.23;97002.34;4984968;28;1914;-74
2023/03/10 02:34:39;;;;;;;;;;;;;;;22.12;27.95;97012.56;4984819;28;1181;-74
2023/03/10 02:37:04;;;;;;;;;;;;;;;22.28;27.93;97009.44;5000765;28;931;-75
2023/03/10 02:39:30;;;;;;;;;;;;;;;22.05;27.89;97007.22;4984562;28;1304;-74
2023/03/10 02:41:57;;;;;;;;;;;;;;;21.93;28.00;97016.66;5000859;28;1151;-75
2023/03/10 02:44:22;;;;;;;;;;;;;;;21.79;28.43;97024.50;4984457;28;1298;-75
2023/03/10 02:46:49;;;;;;;;;;;;;;;21.75;28.20;97018.19;4969112;28;1242;-75
2023/03/10 02:49:14;;;;;;;;;;;;;;;22.06;28.22;97014.44;5017854;28;951;-74
2023/03/10 02:51:43;;;;;;;;;;;;;;;22.34;27.89;97018.09;4984657;28;1906;-74
2023/03/10 02:54:12;;;;;;;;;;;;;;;21.94;28.27;97012.56;4985170;28;1603;-74
2023/03/10 02:56:38;;;;;;;;;;;;;;;22.00;28.26;97019.16;4984175;28;1242;-75
2023/03/10 02:59:04;;;;;;;;;;;;;;;21.77;28.57;97027.03;4984336;28;1303;-75
2023/03/10 03:01:31;;;;;;;;;;;;;;;22.04;28.55;97016.97;4984531;28;1137;-75
2023/03/10 03:03:58;;;;;;;;;;;;;;;22.48;27.89;97017.44;4984330;28;1262;-74
2023/03/10 03:06:24;;;;;;;;;;;;;;;22.23;28.42;97012.91;5000197;28;1278;-74
2023/03/10 03:08:50;;;;;;;;;;;;;;;22.18;28.17;97022.03;4984290;28;1219;-74
2023/03/10 03:11:18;;;;;;;;;;;;;;;22.01;28.32;97013.03;4984336;28;1984;-74
2023/03/10 03:13:44;;;;;;;;;;;;;;;21.79;28.87;97024.50;4984440;28;1724;-74
2023/03/10 03:16:09;;;;;;;;;;;;;;;21.69;28.90;97031.41;5000309;28;1132;-75
2023/03/10 03:18:36;;;;;;;;;;;;;;;22.31;28.60;97022.66;5000043;28;1420;-75
2023/03/10 03:21:03;;;;;;;;;;;;;;;22.58;28.30;97023.88;4999965;28;1243;-75
2023/03/10 03:23:28;;;;;;;;;;;;;;;22.48;28.63;97033.66;4983851;28;1105;-75
2023/03/10 03:25:54;;;;;;;;;;;;;;;22.36;28.69;97027.69;4983877;28;1098;-75
2023/03/10 03:28:20;;;;;;;;;;;;;;;22.19;28.76;97026.44;4983966;28;1211;-75
2023/03/10 03:30:48;;;;;;;;;;;;;;;22.03;29.12;97027.50;4984161;28;1910;-74
2023/03/10 03:33:14;;;;;;;;;;;;;;;21.54;29.69;97038.91;4959903;28;1284;-74
2023/03/10 03:35:41;;;;;;;;;;;;;;;21.67;29.79;97044.47;4975962;28;1324;-74
2023/03/10 03:38:07;;;;;;;;;;;;;;;22.00;29.92;97044.66;4960030;28;1215;-74
2023/03/10 03:40:34;;;;;;;;;;;;;;;22.42;29.28;97044.06;4960332;28;1222;-75
2023/03/10 03:43:02;;;;;;;;;;;;;;;22.05;29.32;97029.88;4975952;28;1142;-74
2023/03/10 03:45:28;;;;;;;;;;;;;;;21.97;29.30;97045.63;4959818;28;1076;-75
2023/03/10 03:47:55;;;;;;;;;;;;;;;21.89;29.38;97050.00;4959929;28;1623;-75
2023/03/10 03:50:21;;;;;;;;;;;;;;;21.90;29.30;97057.22;4975765;28;1203;-74
2023/03/10 03:52:49;;;;;;;;;;;;;;;21.72;29.75;97058.78;4959664;28;1235;-74
2023/03/10 03:55:17;;;;;;;;;;;;;;;22.20;29.95;97053.50;4959781;28;1184;-75
2023/03/10 03:57:46;;;;;;;;;;;;;;;22.39;29.40;97047.84;4920949;29;1373;-74
2023/03/10 04:00:19;;;;;;;;;;;;;;;22.45;29.20;97046.75;4906111;29;1152;-74
2023/03/10 04:02:48;;;;;;;;;;;;;;;21.82;29.73;97046.22;4905633;29;1118;-74
2023/03/10 04:05:13;;;;;;;;;;;;;;;21.83;29.87;97039.28;4905437;29;1261;-74
2023/03/10 04:07:40;;;;;;;;;;;;;;;21.67;30.21;97039.59;4921403;29;1184;-74
2023/03/10 04:10:08;;;;;;;;;;;;;;;22.05;30.04;97029.88;4915653;28;1236;-75
2023/03/10 04:12:34;;;;;;;;;;;;;;;22.29;29.84;97027.22;4943267;28;1902;-74
2023/03/10 04:15:00;;;;;;;;;;;;;;;22.27;29.76;97041.06;4921067;29;1117;-74
2023/03/10 04:17:25;;;;;;;;;;;;;;;22.09;29.76;97039.00;4921026;29;1348;-75
2023/03/10 04:19:52;;;;;;;;;;;;;;;22.14;29.59;97041.25;4936957;29;914;-74
2023/03/10 04:22:18;;;;;;;;;;;;;;;22.08;29.37;97045.94;4905158;29;1364;-74
2023/03/10 04:24:45;;;;;;;;;;;;;;;21.66;29.94;97049.34;4890086;29;1153;-75
2023/03/10 04:27:11;;;;;;;;;;;;;;;22.37;29.96;97053.97;4905181;29;1200;-74
2023/03/10 04:29:37;;;;;;;;;;;;;;;22.49;29.48;97047.38;4954778;28;1515;-74
2023/03/10 04:32:03;;;;;;;;;;;;;;;22.17;29.67;97068.59;4943007;28;1902;-75
2023/03/10 04:34:30;;;;;;;;;;;;;;;21.97;29.86;97062.59;4943074;28;1102;-74
2023/03/10 04:36:55;;;;;;;;;;;;;;;21.76;30.14;97070.75;4943160;28;1195;-75
2023/03/10 04:39:21;;;;;;;;;;;;;;;21.77;30.04;97065.88;4953892;29;1548;-74
2023/03/10 04:41:47;;;;;;;;;;;;;;;22.06;30.45;97063.38;4901001;29;1861;-75
2023/03/10 04:44:13;;;;;;;;;;;;;;;22.33;29.89;97047.69;4901794;29;1078;-74
2023/03/10 04:46:39;;;;;;;;;;;;;;;22.51;29.47;97052.56;4901854;29;1176;-75
2023/03/10 04:49:06;;;;;;;;;;;;;;;22.06;30.04;97045.59;4886415;29;1138;-75
2023/03/10 04:51:31;;;;;;;;;;;;;;;22.00;30.00;97042.59;4895314;29;1930;-74
2023/03/10 04:53:59;;;;;;;;;;;;;;;21.25;30.99;97033.63;4895051;29;2060;-75
2023/03/10 04:56:28;;;;;;;;;;;;;;;21.84;30.18;97037.25;4864654;29;1197;-75
2023/03/10 04:58:53;;;;;;;;;;;;;;;22.50;29.84;97025.47;4863947;29;1670;-75
2023/03/10 05:01:19;;;;;;;;;;;;;;;22.39;30.07;97022.34;4895296;29;1637;-74
2023/03/10 05:03:49;;;;;;;;;;;;;;;21.97;30.38;97017.28;4895081;29;1126;-75
2023/03/10 05:06:16;;;;;;;;;;;;;;;22.08;30.37;97011.94;4879707;29;1085;-75
2023/03/10 05:08:46;;;;;;;;;;;;;;;21.97;30.06;97020.13;4878511;29;2025;-75
2023/03/10 05:11:13;;;;;;;;;;;;;;;21.96;30.05;97021.34;4874174;29;1895;-75
2023/03/10 05:13:39;;;;;;;;;;;;;;;21.87;30.25;97025.00;4879742;29;1351;-74
2023/03/10 05:16:11;;;;;;;;;;;;;;;21.88;30.52;97032.22;4887454;29;1235;-74
2023/03/10 05:18:36;;;;;;;;;;;;;;;21.83;31.02;97044.97;4937792;29;1053;-74
2023/03/10 05:21:03;;;;;;;;;;;;;;;22.40;30.35;97043.75;4938278;29;1250;-75
2023/03/10 05:23:28;;;;;;;;;;;;;;;22.34;30.32;97052.88;4947243;28;1240;-74
2023/03/10 05:25:54;;;;;;;;;;;;;;;22.23;30.48;97061.09;4996296;28;1442;-74
2023/03/10 05:28:22;;;;;;;;;;;;;;;21.85;30.72;97070.75;4980728;28;1435;-75
2023/03/10 05:30:48;;;;;;;;;;;;;;;22.09;30.00;97078.66;4965272;28;1894;-74
2023/03/10 05:33:14;;;;;;;;;;;;;;;21.94;30.33;97086.19;4965159;28;1252;-74
2023/03/10 05:35:40;;;;;;;;;;;;;;;22.09;31.02;97087.94;4981414;28;1148;-74
2023/03/10 05:38:06;;;;;;;;;;;;;;;22.31;30.68;97096.34;4981230;28;1156;-74
2023/03/10 05:40:33;;;;;;;;;;;;;;;22.36;30.21;97089.25;4976230;28;1460;-74
2023/03/10 05:42:58;;;;;;;;;;;;;;;21.95;30.49;97104.75;4981581;28;1291;-75
2023/03/10 05:45:25;;;;;;;;;;;;;;;21.95;30.58;97101.94;4981032;28;1589;-75
2023/03/10 05:47:51;;;;;;;;;;;;;;;21.64;30.92;97102.00;4965032;28;1232;-74
2023/03/10 05:50:18;;;;;;;;;;;;;;;21.88;30.46;97105.06;4979121;28;1424;-74
2023/03/10 05:52:44;;;;;;;;;;;;;;;21.90;30.37;97092.00;4978206;28;1975;-74
2023/03/10 05:55:11;;;;;;;;;;;;;;;22.18;30.90;97098.53;4963064;28;1288;-74
2023/03/10 05:57:36;;;;;;;;;;;;;;;22.45;29.99;97099.81;4979018;28;904;-75
2023/03/10 06:00:03;;;;;;;;;;;;;;;22.33;30.29;97110.84;4946927;28;1205;-75
2023/03/10 06:02:38;;;;;;;;;;;;;;;22.15;30.29;97112.84;4978980;28;1170;-75
2023/03/10 06:05:04;;;;;;;;;;;;;;;22.17;30.15;97122.44;4960473;28;1463;-75
2023/03/10 06:07:30;;;;;;;;;;;;;;;21.88;30.54;97133.38;4942061;29;1074;-75
2023/03/10 06:09:56;;;;;;;;;;;;;;;21.76;30.50;97126.56;4957967;29;884;-74
2023/03/10 06:12:21;;;;;;;;;;;;;;;21.79;30.66;97123.59;4938989;29;1993;-74
2023/03/10 06:14:47;;;;;;;;;;;;;;;22.08;31.32;97113.91;4923052;29;985;-74
2023/03/10 06:17:12;;;;;;;;;;;;;;;22.16;30.76;97114.41;4903827;29;1158;-75
2023/03/10 06:19:38;;;;;;;;;;;;;;;22.32;30.66;97114.91;4903213;29;1449;-74
2023/03/10 06:22:03;;;;;;;;;;;;;;;21.95;30.83;97121.75;4904014;29;1149;-74
2023/03/10 06:24:29;;;;;;;;;;;;;;;22.07;30.51;97129.31;4920108;29;978;-75
2023/03/10 06:26:55;;;;;;;;;;;;;;;22.12;30.25;97131.56;4888366;29;1243;-75
2023/03/10 06:29:20;;;;;;;;;;;;;;;21.96;30.45;97140.31;4904126;29;1105;-74
2023/03/10 06:31:46;;;;;;;;;;;;;;;22.07;30.95;97140.66;4902992;29;1919;-74
2023/03/10 06:34:11;;;;;;;;;;;;;;;22.25;30.79;97152.06;4847046;29;1533;-75
2023/03/10 06:36:39;;;;;;;;;;;;;;;22.38;30.30;97145.44;4863173;29;980;-74
2023/03/10 06:39:05;;;;;;;;;;;;;;;21.77;30.62;97137.44;4863475;29;973;-74
2023/03/10 06:41:30;;;;;;;;;;;;;;;21.79;30.81;97132.09;4866858;29;978;-75
2023/03/10 06:43:56;;;;;;;;;;;;;;;21.79;30.62;97128.47;4900629;29;1017;-74
2023/03/10 06:46:21;;;;;;;;;;;;;;;21.90;30.33;97125.19;4900705;29;951;-75
2023/03/10 06:48:48;;;;;;;;;;;;;;;21.90;30.22;97142.19;4898716;29;1334;-74
2023/03/10 06:51:15;;;;;;;;;;;;;;;22.16;30.85;97143.53;4921824;29;1916;-75
2023/03/10 06:53:40;;;;;;;;;;;;;;;22.46;30.01;97139.00;4906703;29;1117;-74
2023/03/10 06:56:07;;;;;;;;;;;;;;;21.97;30.60;97137.03;4938499;29;1034;-75
2023/03/10 06:58:33;;;;;;;;;;;;;;;22.02;30.46;97133.59;4906697;29;1236;-74
2023/03/10 07:00:59;;;;;;;;;;;;;;;21.75;30.59;97142.78;4922308;29;1010;-74
2023/03/10 07:03:25;;;;;;;;;;;;;;;22.08;29.91;97147.91;4922225;29;1056;-76
2023/03/10 07:05:51;;;;;;;;;;;;;;;21.94;30.08;97143.63;4950637;28;1393;-75
2023/03/10 07:08:17;;;;;;;;;;;;;;;21.85;30.60;97147.22;4957032;29;1599;-75
2023/03/10 07:10:42;;;;;;;;;;;;;;;22.02;30.86;97149.78;4956923;29;1915;-74
2023/03/10 07:13:09;;;;;;;;;;;;;;;22.27;30.30;97143.88;4957032;29;1265;-75
2023/03/10 07:15:35;;;;;;;;;;;;;;;21.97;30.20;97141.91;4940954;29;954;-75
2023/03/10 07:18:01;;;;;;;;;;;;;;;21.82;30.49;97142.50;4971756;28;1010;-75
2023/03/10 07:20:26;;;;;;;;;;;;;;;21.72;30.29;97140.91;4943471;28;1479;-75
2023/03/10 07:22:52;;;;;;;;;;;;;;;21.76;30.27;97144.38;4960061;28;1027;-75
2023/03/10 07:25:17;;;;;;;;;;;;;;;21.78;30.16;97141.84;4976147;28;972;-75
2023/03/10 07:27:43;;;;;;;;;;;;;;;22.02;30.38;97144.09;4959942;28;954;-75
2023/03/10 07:30:09;;;;;;;;;;;;;;;22.21;30.23;97144.97;4960624;28;945;-74
2023/03/10 07:32:35;;;;;;;;;;;;;;;22.28;29.94;97150.34;4943880;28;1967;-74
2023/03/10 07:35:00;;;;;;;;;;;;;;;22.16;29.85;97160.53;4901841;29;1294;-75
2023/03/10 07:37:26;;;;;;;;;;;;;;;21.95;30.02;97150.06;4918580;29;1138;-74
2023/03/10 07:39:54;;;;;;;;;;;;;;;21.89;29.97;97151.94;4861623;29;1543;-74
2023/03/10 07:42:20;;;;;;;;;;;;;;;21.76;30.46;97155.69;4846869;29;1023;-74
2023/03/10 07:44:46;;;;;;;;;;;;;;;22.07;29.90;97163.31;4866643;29;899;-74
2023/03/10 07:47:11;;;;;;;;;;;;;;;22.07;30.59;97174.66;4883634;29;1240;-74
2023/03/10 07:49:37;;;;;;;;;;;;;;;22.07;30.57;97158.47;4883744;29;1132;-74
2023/03/10 07:52:02;;;;;;;;;;;;;;;22.19;30.14;97167.31;4882570;29;1927;-75
2023/03/10 07:54:28;;;;;;;;;;;;;;;22.06;30.18;97165.38;4918600;29;1024;-74
2023/03/10 07:56:53;;;;;;;;;;;;;;;21.97;30.29;97161.75;4917962;29;985;-74
2023/03/10 07:59:19;;;;;;;;;;;;;;;21.78;30.22;97158.84;4918528;29;942;-74
2023/03/10 08:01:45;;;;;;;;;;;;;;;21.90;29.81;97164.84;4902283;29;1349;-74
2023/03/10 08:04:11;;;;;;;;;;;;;;;21.78;29.99;97164.50;4917596;29;1139;-74
2023/03/10 08:06:36;;;;;;;;;;;;;;;21.80;30.02;97166.88;4944690;28;1573;-75
2023/03/10 08:09:02;;;;;;;;;;;;;;;21.96;30.23;97157.31;4959496;28;1074;-74
2023/03/10 08:11:28;;;;;;;;;;;;;;;21.91;30.46;97155.09;4959052;28;2189;-75
2023/03/10 08:13:55;;;;;;;;;;;;;;;22.28;30.15;97167.34;4959218;28;976;-75
2023/03/10 08:16:21;;;;;;;;;;;;;;;22.07;29.88;97157.66;4959060;28;1021;-74
2023/03/10 08:18:48;;;;;;;;;;;;;;;21.95;30.21;97161.41;4976173;28;993;-75
2023/03/10 08:21:13;;;;;;;;;;;;;;;21.77;30.50;97168.59;4990087;28;1314;-74
2023/03/10 08:23:39;;;;;;;;;;;;;;;21.92;30.00;97168.81;4997052;28;979;-75
2023/03/10 08:26:05;;;;;;;;;;;;;;;21.74;30.17;97160.25;4958634;28;995;-76
2023/03/10 08:28:31;;;;;;;;;;;;;;;22.12;30.13;97164.78;4974668;28;968;-74
2023/03/10 08:30:58;;;;;;;;;;;;;;;22.23;29.92;97154.59;4974610;28;1902;-75
2023/03/10 08:33:25;;;;;;;;;;;;;;;22.10;29.75;97156.72;4942998;28;1080;-74
2023/03/10 08:35:59;;;;;;;;;;;;;;;21.90;30.24;97159.19;4954919;28;1441;-75
2023/03/10 08:38:24;;;;;;;;;;;;;;;21.65;30.28;97160.19;4939529;29;973;-75
2023/03/10 08:40:50;;;;;;;;;;;;;;;21.84;30.20;97167.50;4955627;29;971;-74
2023/03/10 08:43:16;;;;;;;;;;;;;;;21.95;29.85;97162.19;4939413;29;1232;-74
2023/03/10 08:45:41;;;;;;;;;;;;;;;22.06;30.23;97168.19;4917313;29;1260;-74
2023/03/10 08:48:07;;;;;;;;;;;;;;;22.10;29.74;97168.06;4901595;29;1033;-75
2023/03/10 08:50:33;;;;;;;;;;;;;;;22.09;29.75;97166.50;4897331;29;1658;-74
2023/03/10 08:52:58;;;;;;;;;;;;;;;21.92;29.91;97168.03;4920489;29;1985;-74
2023/03/10 08:55:24;;;;;;;;;;;;;;;21.98;29.67;97161.28;4937382;29;971;-74
2023/03/10 08:57:49;;;;;;;;;;;;;;;21.85;29.65;97152.88;4971260;28;1012;-75
2023/03/10 09:00:16;;;;;;;;;;;;;;;21.64;30.01;97155.78;4978479;28;921;-74
2023/03/10 09:02:42;;;;;;;;;;;;;;;22.15;30.15;97158.97;4946455;28;1175;-74
2023/03/10 09:05:09;;;;;;;;;;;;;;;22.18;29.73;97158.03;4967208;28;1326;-75
2023/03/10 09:07:34;;;;;;;;;;;;;;;22.10;29.56;97151.06;4927542;29;1130;-74
2023/03/10 09:10:00;;;;;;;;;;;;;;;22.09;29.55;97149.50;4946010;28;1553;-75
2023/03/10 09:12:25;;;;;;;;;;;;;;;21.81;30.00;97143.75;4949852;28;1919;-74
2023/03/10 09:14:51;;;;;;;;;;;;;;;21.93;29.55;97146.94;4942908;29;1255;-74
2023/03/10 09:17:17;;;;;;;;;;;;;;;21.77;29.88;97139.50;4923683;29;1549;-74
2023/03/10 09:19:42;;;;;;;;;;;;;;;21.80;29.76;97144.22;4923857;29;1227;-75
2023/03/10 09:22:08;;;;;;;;;;;;;;;22.14;29.80;97146.06;4922073;29;928;-74
2023/03/10 09:24:34;;;;;;;;;;;;;;;22.15;29.57;97147.63;4891269;29;1221;-75
2023/03/10 09:26:59;;;;;;;;;;;;;;;22.06;29.49;97139.88;4939744;29;963;-75
2023/03/10 09:29:25;;;;;;;;;;;;;;;22.00;29.54;97136.09;4926871;29;1601;-74
2023/03/10 09:31:50;;;;;;;;;;;;;;;21.73;30.03;97139.63;4942221;29;1983;-75
2023/03/10 09:34:16;;;;;;;;;;;;;;;21.93;29.63;97135.59;4942798;29;1017;-75
2023/03/10 09:36:42;;;;;;;;;;;;;;;21.85;29.76;97124.56;4958413;29;897;-75
2023/03/10 09:39:07;;;;;;;;;;;;;;;21.84;29.66;97134.31;4958810;28;1132;-74
2023/03/10 09:41:52;;;;;;;;;;;;;;;21.62;29.96;97133.63;4982610;28;1021;-74
2023/03/10 09:44:21;;;;;;;;;;;;;;;22.22;29.52;97130.31;4998311;28;1225;-75
2023/03/10 09:46:53;;;;;;;;;;;;;;;22.19;29.33;97124.81;4999577;28;1104;-74
2023/03/10 09:49:25;;;;;;;;;;;;;;;21.89;29.96;97123.63;4997982;28;1282;-74
2023/03/10 09:51:51;;;;;;;;;;;;;;;21.91;29.84;97119.06;4966179;28;1970;-74
2023/03/10 09:54:26;;;;;;;;;;;;;;;21.91;29.58;97121.91;4971228;28;1392;-75
2023/03/10 09:56:51;;;;;;;;;;;;;;;21.89;29.75;97117.97;4994592;28;851;-74
2023/03/10 09:59:20;;;;;;;;;;;;;;;21.67;29.80;97113.19;4978753;28;972;-75
2023/03/10 10:01:46;;;;;;;;;;;;;;;22.00;30.07;97109.81;4938882;29;1386;-74
2023/03/10 10:04:14;;;;;;;;;;;;;;;22.10;29.75;97117.06;4937688;28;1429;-75
2023/03/10 10:06:42;;;;;;;;;;;;;;;21.98;29.52;97109.50;4934950;29;1426;-74
2023/03/10 10:09:23;;;;;;;;;;;;;;;22.21;29.22;97116.63;4938832;29;1127;-76
2023/03/10 10:11:48;;;;;;;;;;;;;;;22.06;29.61;97096.59;4954809;29;1981;-74
2023/03/10 10:14:14;;;;;;;;;;;;;;;21.95;29.32;97094.22;4954744;29;990;-74
2023/03/10 10:16:55;;;;;;;;;;;;;;;21.84;29.70;97093.88;4957248;29;2217;-74
2023/03/10 10:19:21;;;;;;;;;;;;;;;21.80;29.54;97091.19;4957076;28;1573;-74
2023/03/10 10:21:46;;;;;;;;;;;;;;;21.77;29.61;97086.47;4954085;29;1438;-74
2023/03/10 10:24:12;;;;;;;;;;;;;;;21.72;29.88;97075.78;4938620;29;1071;-74
2023/03/10 10:26:38;;;;;;;;;;;;;;;22.05;29.86;97078.81;4954310;29;958;-75
2023/03/10 10:29:21;;;;;;;;;;;;;;;22.22;29.23;97064.38;4938766;29;988;-74
2023/03/10 10:32:03;;;;;;;;;;;;;;;21.95;29.72;97070.78;4938315;29;2028;-75
2023/03/10 10:34:30;;;;;;;;;;;;;;;21.92;29.63;97068.91;4937979;29;1383;-75
2023/03/10 10:36:56;;;;;;;;;;;;;;;21.76;29.74;97061.44;4906656;29;1023;-74
2023/03/10 10:39:31;;;;;;;;;;;;;;;21.85;29.55;97061.47;4952964;28;970;-75
2023/03/10 10:42:16;;;;;;;;;;;;;;;21.70;29.83;97058.44;4922462;29;1172;-74
2023/03/10 10:44:41;;;;;;;;;;;;;;;21.75;29.79;97052.16;4938195;29;977;-74
2023/03/10 10:47:10;;;;;;;;;;;;;;;21.89;30.32;97055.66;4938260;29;1178;-74
2023/03/10 10:49:36;;;;;;;;;;;;;;;22.14;29.58;97044.06;4925372;29;1419;-74
2023/03/10 10:52:02;;;;;;;;;;;;;;;22.08;29.33;97037.44;4899916;29;1914;-74
2023/03/10 10:54:31;;;;;;;;;;;;;;;22.15;29.34;97039.97;4900141;29;1085;-74
2023/03/10 10:56:57;;;;;;;;;;;;;;;21.93;29.54;97033.66;4899938;29;993;-75
2023/03/10 10:59:27;;;;;;;;;;;;;;;21.94;29.54;97023.88;4900208;29;1112;-74
2023/03/10 11:01:53;;;;;;;;;;;;;;;21.99;29.46;97017.59;4899592;29;1350;-74
2023/03/10 11:04:19;;;;;;;;;;;;;;;21.78;29.56;97011.59;4899818;29;1068;-74
2023/03/10 11:06:44;;;;;;;;;;;;;;;21.92;29.66;96998.09;4899715;29;982;-75
2023/03/10 11:09:11;;;;;;;;;;;;;;;22.35;29.25;97000.59;4900085;29;1165;-74
2023/03/10 11:11:39;;;;;;;;;;;;;;;22.20;29.51;97002.50;4899690;29;1910;-75
2023/03/10 11:14:07;;;;;;;;;;;;;;;21.99;29.66;96994.94;4955027;29;959;-75
2023/03/10 11:16:45;;;;;;;;;;;;;;;22.04;29.48;96988.63;4940204;29;1565;-74
2023/03/10 11:19:15;;;;;;;;;;;;;;;21.79;29.94;96984.84;4924759;29;959;-74
2023/03/10 11:21:42;;;;;;;;;;;;;;;21.91;29.60;96976.66;4925268;29;955;-75
2023/03/10 11:24:20;;;;;;;;;;;;;;;21.85;29.66;96977.28;4940744;29;1165;-75
2023/03/10 11:27:03;;;;;;;;;;;;;;;21.94;29.48;96972.91;4935107;29;1486;-74
2023/03/10 11:29:34;;;;;;;;;;;;;;;22.01;30.17;96972.56;4930220;28;1395;-75
2023/03/10 11:32:02;;;;;;;;;;;;;;;22.26;29.54;96980.78;4956194;29;1910;-74
2023/03/10 11:34:29;;;;;;;;;;;;;;;22.24;29.48;96988.19;4956518;29;977;-74
2023/03/10 11:36:54;;;;;;;;;;;;;;;22.06;29.45;96984.06;4956652;29;970;-74
2023/03/10 11:39:35;;;;;;;;;;;;;;;22.11;29.45;96985.50;4956679;28;1707;-75
2023/03/10 11:42:06;;;;;;;;;;;;;;;21.69;30.09;96986.09;4956223;29;1049;-74
2023/03/10 11:44:40;;;;;;;;;;;;;;;21.79;29.87;96981.22;4956108;29;1009;-75
2023/03/10 11:47:15;;;;;;;;;;;;;;;21.85;29.95;96980.13;4956436;29;1085;-75
2023/03/10 11:49:42;;;;;;;;;;;;;;;22.07;30.17;96979.19;4956299;29;923;-74
2023/03/10 11:52:18;;;;;;;;;;;;;;;22.33;29.32;96980.47;4955905;29;1965;-75
2023/03/10 11:54:47;;;;;;;;;;;;;;;22.09;29.55;96968.97;4965061;28;1359;-74
2023/03/10 11:57:22;;;;;;;;;;;;;;;22.00;29.87;96954.78;4959317;28;987;-74
2023/03/10 11:59:52;;;;;;;;;;;;;;;21.87;29.78;96945.69;4960836;28;973;-74
2023/03/10 12:02:28;;;;;;;;;;;;;;;21.94;29.60;96950.25;4960244;28;1181;-74
2023/03/10 12:05:00;;;;;;;;;;;;;;;21.83;29.62;96943.00;4960191;28;1328;-75
2023/03/10 12:07:26;;;;;;;;;;;;;;;21.61;29.96;96944.44;4977913;28;907;-75
2023/03/10 12:09:53;;;;;;;;;;;;;;;21.75;30.07;96938.91;4988714;28;1383;-75
2023/03/10 12:12:38;;;;;;;;;;;;;;;22.16;30.20;96944.44;4979633;28;1975;-76
2023/03/10 12:15:12;;;;;;;;;;;;;;;22.09;29.95;96934.19;4996373;28;1216;-74
2023/03/10 12:17:37;;;;;;;;;;;;;;;21.77;30.22;96930.75;4979851;28;930;-74
2023/03/10 12:20:14;;;;;;;;;;;;;;;21.87;29.79;96928.69;4958820;28;1249;-74
2023/03/10 12:22:40;;;;;;;;;;;;;;;22.08;29.41;96921.28;4944089;28;982;-74
2023/03/10 12:25:24;;;;;;;;;;;;;;;21.74;29.83;96914.69;4958510;28;1423;-74
2023/03/10 12:28:08;;;;;;;;;;;;;;;21.76;29.83;96915.03;4974945;28;985;-74
2023/03/10 12:30:42;;;;;;;;;;;;;;;21.77;29.61;96908.09;4958054;28;1025;-74
2023/03/10 12:33:27;;;;;;;;;;;;;;;22.08;30.07;96904.28;4958534;28;1899;-75
2023/03/10 12:35:53;;;;;;;;;;;;;;;22.30;29.43;96909.78;4958820;28;1050;-74
2023/03/10 12:38:38;;;;;;;;;;;;;;;22.41;29.39;96903.59;4900818;29;1517;-75
2023/03/10 12:41:04;;;;;;;;;;;;;;;22.10;29.68;96901.75;4901656;29;1553;-75
2023/03/10 12:43:52;;;;;;;;;;;;;;;22.17;29.50;96904.28;4917259;29;926;-75
2023/03/10 12:46:20;;;;;;;;;;;;;;;21.83;30.13;96894.88;4861283;29;1016;-74
2023/03/10 12:48:47;;;;;;;;;;;;;;;22.00;29.50;96886.03;4845634;29;1128;-74
2023/03/10 12:51:13;;;;;;;;;;;;;;;21.95;29.50;96878.19;4845980;29;1908;-75
2023/03/10 12:53:53;;;;;;;;;;;;;;;21.73;30.18;96873.50;4841276;29;1649;-75
2023/03/10 12:56:20;;;;;;;;;;;;;;;21.89;29.79;96863.09;4824115;29;1034;-75
2023/03/10 12:58:46;;;;;;;;;;;;;;;21.98;30.36;96871.56;4824475;29;956;-74
2023/03/10 13:01:13;;;;;;;;;;;;;;;22.17;29.94;96856.13;4824600;29;1259;-74